Arnold, Nebraska
Current Conditions -  °F | °C
As of 9:53 AM on Tuesday 21 Oct 2014 (Local Time) from KBBW Reporting Station
Clear Clear  
Wind Chill: 58°   Ceiling: Unl
Heat Index: 58°   Visibility: 10mi
Dew Point: 46°   Wind: 6mph
Humidity: 65%   Direction: 180°S
Pressure: 30.06"   Gusts: NA
Location:  41.42°N, 100.19°W
Report Text: KBBW 211453Z AUTO 18005KT 10SM CLR 14/08 A3006 RMK AO2 SLP179 T01440078 50005
Loading
Personal Weather Stations






























Interactive Weather Map
Tropical Storm Tracking
New forecast layout! Learn more

10-Day Weather Forecast

Advertisements
Track Severe Weather on mobile